Terminal Aerodrome Forecast
Issued by NWS

Home | Current Version | Previous Version | Text Only | Print | Product List | Glossary On
Versions: 1 2 3 4 5 6 7 8 9 10 11 12
000
FTAK31 PAFA 061720
TAFAFA
TAF
PAFA 061720Z 0618/0724 04005KT P6SM SCT050 BKN100 BKN200
     FM062000 24008KT P6SM VCSH BKN050 BKN100 BKN200
     FM070300 VRB04KT P6SM SCT050 BKN100 BKN200=

USA.gov is the U.S. government's official web portal to all federal, state and local government web resources and services.